Impacts METAR Board
IDs:

KDFW - Dallas-Ft Worth Intl, TX, US

Updated at: 2100 UTC 15 Jun 2019
Potential Impact None Slight Moderate High
Time 15/09Z 15/10Z 15/11Z 15/12Z 15/13Z 15/14Z 15/15Z 15/16Z 15/17Z 15/18Z 15/19Z 15/20Z 15/21Z
Temp76 76 76 75 77 80 82 85 88 90 92 92 92
Dewpt68 68 68 69 69 69 71 71 71 70 69 70 69
Altim29.84 29.85 29.83 29.84 29.84 29.85 29.86 29.85 29.85 29.83 29.81 29.79 29.78
VIS10 10 10 10 10 10 10 10 10 10 10 10 10
CIG20 23 300 250 250 23 24 29 250 -- -- -- --
CoverOVCOVCBKNBKNBKNBKNBKNBKNBKNSCTSCTSCTSCT
FltCatMVFRMVFRVFRVFRVFRMVFRMVFRMVFRVFRVFRVFRVFRVFR
WX--------------------------
WDir180180180170180190190190180170180170170
WSpd17 13 17 15 15 16 14 20 18 18 19 20 22
WGst23 21 21 19 21 -- 21 -- 25 25 27 28 29
Raw hourly METARs
KDFW 150853Z 18017G23KT 10SM OVC020 24/20 A2984 RMK AO2 SLP095 T02440200 50000
KDFW 150953Z 18013G21KT 10SM OVC023 24/20 A2985 RMK AO2 SLP098 T02440200
KDFW 151053Z 18017G21KT 10SM SCT024 BKN300 24/20 A2983 RMK AO2 SLP093 T02440200
KDFW 151153Z 17015G19KT 10SM FEW015 FEW025 BKN250 24/21 A2984 RMK AO2 SLP095 T02390206 10267 20239 58000
KDFW 151253Z 18015G21KT 10SM SCT025 BKN250 25/21 A2984 RMK AO2 SLP094 T02500206
KDFW 151353Z 19016KT 10SM BKN023 BKN250 27/21 A2985 RMK AO2 PK WND 19028/1333 SLP098 T02670206
KDFW 151453Z 19014G21KT 10SM BKN024 BKN250 28/22 A2986 RMK AO2 SLP102 T02780217 53007
KDFW 151553Z 19020KT 10SM BKN029 BKN250 29/22 A2985 RMK AO2 PK WND 18026/1516 SLP099 T02940217
KDFW 151653Z 18018G25KT 10SM SCT033 BKN250 31/22 A2985 RMK AO2 PK WND 18027/1616 SLP097 T03110217
KDFW 151753Z 17018G25KT 10SM FEW035 FEW120 SCT250 32/21 A2983 RMK AO2 PK WND 16026/1736 SLP093 T03220211 10322 20239 58008
KDFW 151853Z 18019G27KT 10SM FEW040 FEW120 SCT250 33/21 A2981 RMK AO2 PK WND 16028/1757 SLP086 T03330206
KDFW 151953Z 17020G28KT 10SM FEW045 FEW120 SCT250 33/21 A2979 RMK AO2 PK WND 20031/1913 SLP078 T03330211
KDFW 152053Z 17022G29KT 10SM FEW050 SCT120 SCT250 33/21 A2978 RMK AO2 PK WND 18029/2052 SLP073 T03330206 56020



Page loaded:  21:03 UTC  |   02:03 PM Pacific  |   03:03 PM Mountain  |   04:03 PM Central  |   05:03 PM Eastern

 

ADVISORIES

FORECASTS

FORECASTS

OBSERVATIONS

USER TOOLS

ABOUT US